createdAt,value
2022-12-14T00:01:25.566Z,0.25
2022-12-14T00:03:52.744Z,0.24
2022-12-14T00:06:20.363Z,0.23
2022-12-14T00:08:48.428Z,0.22
2022-12-14T00:11:15.337Z,0.23
2022-12-14T00:13:43.044Z,0.23
2022-12-14T00:16:13.077Z,0.23
2022-12-14T00:18:40.677Z,0.23
2022-12-14T00:21:12.473Z,0.23
2022-12-14T00:23:40.204Z,0.24
2022-12-14T00:26:24.062Z,0.24
2022-12-14T00:28:52.184Z,0.23
2022-12-14T00:31:19.648Z,0.22
2022-12-14T00:33:48.827Z,0.21
2022-12-14T00:36:15.145Z,0.19
2022-12-14T00:38:42.349Z,0.19
2022-12-14T00:41:09.937Z,0.19
2022-12-14T00:43:36.314Z,0.18
2022-12-14T00:46:02.856Z,0.18
2022-12-14T00:48:29.788Z,0.17
2022-12-14T00:50:56.824Z,0.16
2022-12-14T00:53:24.404Z,0.15
2022-12-14T00:55:51.142Z,0.15
2022-12-14T00:58:20.125Z,0.14
2022-12-14T01:00:48.194Z,0.14
2022-12-14T01:03:14.573Z,0.12
2022-12-14T01:05:41.039Z,0.14
2022-12-14T01:08:07.857Z,0.14
2022-12-14T01:10:40.499Z,0.11
2022-12-14T01:13:06.855Z,0.12
2022-12-14T01:15:35.625Z,0.10
2022-12-14T01:18:01.974Z,0.08
2022-12-14T01:20:30.680Z,0.06
2022-12-14T01:22:57.111Z,0.06
2022-12-14T01:25:23.873Z,0.05
2022-12-14T01:27:50.331Z,0.03
2022-12-14T01:30:19.224Z,0.02
2022-12-14T01:32:46.416Z,0.02
2022-12-14T01:35:15.054Z,0.00
2022-12-14T01:37:41.422Z,0.03
2022-12-14T01:40:08.732Z,0.02
2022-12-14T01:42:38.276Z,0.03
2022-12-14T01:45:05.586Z,0.06
2022-12-14T01:47:42.890Z,0.05
2022-12-14T01:50:31.131Z,0.05
2022-12-14T01:53:02.404Z,0.10
2022-12-14T01:55:35.750Z,0.11
2022-12-14T01:58:08.277Z,0.12
2022-12-14T02:00:40.081Z,0.15
2022-12-14T02:03:10.411Z,0.17
2022-12-14T02:05:42.213Z,0.19
2022-12-14T02:08:08.981Z,0.23
2022-12-14T02:10:35.913Z,0.25
2022-12-14T02:13:17.570Z,0.26
2022-12-14T02:15:44.460Z,0.30
2022-12-14T02:18:17.357Z,0.31
2022-12-14T02:21:05.746Z,0.34
2022-12-14T02:23:50.251Z,0.35
2022-12-14T02:26:44.095Z,0.34
2022-12-14T02:29:49.131Z,0.32
2022-12-14T02:32:30.675Z,0.34
2022-12-14T02:35:24.284Z,0.34
2022-12-14T02:38:12.635Z,0.32
2022-12-14T02:41:13.607Z,0.32
2022-12-14T02:44:09.819Z,0.32
2022-12-14T02:46:45.110Z,0.34
2022-12-14T02:49:31.640Z,0.32
2022-12-14T02:52:22.140Z,0.32
2022-12-14T02:55:05.101Z,0.31
2022-12-14T02:57:35.512Z,0.33
2022-12-14T03:00:05.229Z,0.34
2022-12-14T03:02:35.546Z,0.31
2022-12-14T03:05:02.205Z,0.29
2022-12-14T03:07:55.719Z,0.23
2022-12-14T03:10:36.361Z,0.23
2022-12-14T03:13:30.138Z,0.20
2022-12-14T03:16:07.635Z,0.16
2022-12-14T03:18:39.305Z,0.12
2022-12-14T03:21:10.366Z,0.11
2022-12-14T03:23:41.201Z,0.08
2022-12-14T03:26:10.623Z,0.07
2022-12-14T03:28:48.624Z,0.03
2022-12-14T03:31:26.324Z,0.01
2022-12-14T03:33:55.562Z,0.02
2022-12-14T03:36:27.138Z,0.01
2022-12-14T03:39:00.267Z,-0.01
2022-12-14T03:41:54.443Z,-0.03
2022-12-14T03:44:39.075Z,-0.01
2022-12-14T03:47:33.620Z,-0.03
2022-12-14T03:50:21.456Z,-0.01
2022-12-14T03:52:53.468Z,-0.01
2022-12-14T03:55:43.072Z,-0.03
2022-12-14T03:58:53.838Z,-0.04
2022-12-14T04:01:52.592Z,-0.03
2022-12-14T04:04:26.360Z,-0.03
2022-12-14T04:07:14.279Z,-0.05
2022-12-14T04:10:03.468Z,-0.05
2022-12-14T04:12:57.272Z,-0.04
2022-12-14T04:15:52.236Z,-0.06
2022-12-14T04:18:47.980Z,-0.10
2022-12-14T04:21:29.415Z,-0.10
2022-12-14T04:24:19.937Z,-0.14
2022-12-14T04:26:55.669Z,-0.17
2022-12-14T04:29:52.276Z,-0.19
2022-12-14T04:32:25.186Z,-0.22
2022-12-14T04:34:58.014Z,-0.24
2022-12-14T04:37:26.653Z,-0.24
2022-12-14T04:39:57.942Z,-0.25
2022-12-14T04:42:30.676Z,-0.28
2022-12-14T04:45:01.206Z,-0.27
2022-12-14T04:47:35.654Z,-0.27
2022-12-14T04:50:09.887Z,-0.29
2022-12-14T04:52:44.060Z,-0.31
2022-12-14T04:55:32.948Z,-0.33
2022-12-14T04:58:09.495Z,-0.32
2022-12-14T05:00:40.124Z,-0.33
2022-12-14T05:03:29.809Z,-0.36
2022-12-14T05:06:02.630Z,-0.37
2022-12-14T05:08:47.565Z,-0.41
2022-12-14T05:11:52.631Z,-0.44
2022-12-14T05:14:22.127Z,-0.46
2022-12-14T05:16:49.648Z,-0.50
2022-12-14T05:19:16.266Z,-0.57
2022-12-14T05:21:48.543Z,-0.66
2022-12-14T05:24:16.117Z,-0.73
2022-12-14T05:26:42.763Z,-0.81
2022-12-14T05:29:09.276Z,-0.90
2022-12-14T05:31:49.042Z,-1.01
2022-12-14T05:34:15.913Z,-1.04
2022-12-14T05:36:47.600Z,-1.11
2022-12-14T05:39:14.985Z,-1.14
2022-12-14T05:41:42.309Z,-1.18
2022-12-14T05:44:08.932Z,-1.21
2022-12-14T05:46:35.354Z,-1.26
2022-12-14T05:49:02.156Z,-1.29
2022-12-14T05:51:28.649Z,-1.33
2022-12-14T05:53:58.389Z,-1.36
2022-12-14T05:56:24.853Z,-1.40
2022-12-14T05:58:52.393Z,-1.42
2022-12-14T06:01:19.743Z,-1.45
2022-12-14T06:03:51.936Z,-1.49
2022-12-14T06:06:18.405Z,-1.50
2022-12-14T06:08:45.938Z,-1.53
2022-12-14T06:11:22.635Z,-1.60
2022-12-14T06:13:49.730Z,-1.61
2022-12-14T06:16:25.658Z,-1.66
2022-12-14T06:18:54.528Z,-1.66
2022-12-14T06:21:32.499Z,-1.69
2022-12-14T06:23:59.680Z,-1.68
2022-12-14T06:26:27.446Z,-1.69
2022-12-14T06:28:55.551Z,-1.68
2022-12-14T06:31:24.597Z,-1.67
2022-12-14T06:33:51.643Z,-1.68
2022-12-14T06:36:23.859Z,-1.67
2022-12-14T06:38:59.653Z,-1.69
2022-12-14T06:41:32.437Z,-1.68
2022-12-14T06:44:05.404Z,-1.65
2022-12-14T06:46:44.727Z,-1.67
2022-12-14T06:49:14.151Z,-1.68
2022-12-14T06:51:48.136Z,-1.71
2022-12-14T06:54:16.387Z,-1.73
2022-12-14T06:56:44.872Z,-1.76
2022-12-14T06:59:13.009Z,-1.79
2022-12-14T07:01:42.317Z,-1.83
2022-12-14T07:04:09.728Z,-1.85
2022-12-14T07:06:38.825Z,-1.90
2022-12-14T07:09:06.697Z,-1.94
2022-12-14T07:11:33.337Z,-1.98
2022-12-14T07:14:01.156Z,-2.01
2022-12-14T07:16:31.264Z,-2.04
2022-12-14T07:18:57.986Z,-2.06
2022-12-14T07:21:24.548Z,-2.08
2022-12-14T07:23:54.285Z,-2.10
2022-12-14T07:26:25.942Z,-2.13
2022-12-14T07:28:53.201Z,-2.14
2022-12-14T07:31:22.949Z,-2.14
2022-12-14T07:33:52.447Z,-2.15
2022-12-14T07:36:20.548Z,-2.16
2022-12-14T07:38:48.847Z,-2.17
2022-12-14T07:41:22.354Z,-2.20
2022-12-14T07:43:50.464Z,-2.21
2022-12-14T07:46:19.792Z,-2.24
2022-12-14T07:48:48.171Z,-2.26
2022-12-14T07:51:17.064Z,-2.29
2022-12-14T07:53:44.241Z,-2.30
2022-12-14T07:56:16.149Z,-2.34
2022-12-14T07:58:42.475Z,-2.34
2022-12-14T08:01:14.503Z,-2.36
2022-12-14T08:03:47.187Z,-2.39
2022-12-14T08:06:14.644Z,-2.40
2022-12-14T08:08:41.929Z,-2.40
2022-12-14T08:11:08.968Z,-2.40
2022-12-14T08:13:36.051Z,-2.40
2022-12-14T08:16:06.441Z,-2.39
2022-12-14T08:18:33.204Z,-2.37
2022-12-14T08:21:00.616Z,-2.36
2022-12-14T08:23:27.779Z,-2.36
2022-12-14T08:25:55.584Z,-2.35
2022-12-14T08:28:23.197Z,-2.36
2022-12-14T08:30:49.902Z,-2.37
2022-12-14T08:33:16.437Z,-2.38
2022-12-14T08:35:42.769Z,-2.38
2022-12-14T08:38:09.065Z,-2.39
2022-12-14T08:40:36.760Z,-2.39
2022-12-14T08:43:03.434Z,-2.37
2022-12-14T08:45:29.800Z,-2.38
2022-12-14T08:48:00.311Z,-2.39
2022-12-14T08:50:27.830Z,-2.39
2022-12-14T08:52:54.127Z,-2.40
2022-12-14T08:55:27.579Z,-2.42
2022-12-14T08:57:54.820Z,-2.43
2022-12-14T09:00:21.222Z,-2.42
2022-12-14T09:02:50.213Z,-2.42
2022-12-14T09:05:16.938Z,-2.40
2022-12-14T09:07:43.255Z,-2.38
2022-12-14T09:10:10.714Z,-2.35
2022-12-14T09:12:37.193Z,-2.32
2022-12-14T09:15:04.157Z,-2.28
2022-12-14T09:17:30.480Z,-2.26
2022-12-14T09:19:57.928Z,-2.23
2022-12-14T09:22:24.570Z,-2.18
2022-12-14T09:24:51.844Z,-2.15
2022-12-14T09:27:18.505Z,-2.11
2022-12-14T09:29:44.804Z,-2.06
2022-12-14T09:32:11.120Z,-2.01
2022-12-14T09:34:37.460Z,-1.98
2022-12-14T09:37:07.294Z,-1.93
2022-12-14T09:39:34.468Z,-1.88
2022-12-14T09:42:03.817Z,-1.85
2022-12-14T09:44:48.925Z,-1.79
2022-12-14T09:47:22.729Z,-1.75
2022-12-14T09:50:01.660Z,-1.70
2022-12-14T09:52:44.033Z,-1.64
2022-12-14T09:55:45.913Z,-1.57
2022-12-14T09:58:17.785Z,-1.49
2022-12-14T10:00:53.769Z,-1.43
2022-12-14T10:03:51.478Z,-1.39
2022-12-14T10:06:21.186Z,-1.32
2022-12-14T10:08:59.501Z,-1.28
2022-12-14T10:11:34.806Z,-1.22
2022-12-14T10:14:23.266Z,-1.18
2022-12-14T10:17:26.414Z,-1.13
2022-12-14T10:20:32.025Z,-1.07
2022-12-14T10:23:01.943Z,-1.00
2022-12-14T10:25:32.342Z,-0.95
2022-12-14T10:28:12.701Z,-0.91
2022-12-14T10:30:42.217Z,-0.84
2022-12-14T10:33:11.329Z,-0.80
2022-12-14T10:35:51.848Z,-0.75
2022-12-14T10:38:23.602Z,-0.68
2022-12-14T10:40:53.685Z,-0.61
2022-12-14T10:43:58.057Z,-0.57
2022-12-14T10:46:46.972Z,-0.50
2022-12-14T10:49:23.362Z,-0.43
2022-12-14T10:51:55.645Z,-0.36
2022-12-14T10:54:38.505Z,-0.29
2022-12-14T10:57:05.644Z,-0.19
2022-12-14T10:59:40.732Z,-0.12
2022-12-14T11:02:27.804Z,-0.03
2022-12-14T11:05:00.268Z,0.07
2022-12-14T11:07:38.909Z,0.17
2022-12-14T11:10:23.053Z,0.33
2022-12-14T11:13:00.354Z,0.61
2022-12-14T11:15:33.493Z,1.00
2022-12-14T11:18:03.584Z,1.54
2022-12-14T11:20:30.770Z,2.22
2022-12-14T11:23:05.756Z,3.00
2022-12-14T11:25:44.931Z,3.93
2022-12-14T11:28:37.005Z,4.93
2022-12-14T11:31:13.237Z,5.91
2022-12-14T11:33:45.008Z,6.86
2022-12-14T11:36:30.202Z,7.84
2022-12-14T11:39:01.019Z,8.73
2022-12-14T11:41:36.421Z,9.57
2022-12-14T11:44:05.730Z,10.34
2022-12-14T11:47:15.692Z,11.11
2022-12-14T11:49:41.965Z,11.88
2022-12-14T11:52:08.225Z,12.46
2022-12-14T11:54:37.785Z,12.97
2022-12-14T11:57:13.080Z,13.46
2022-12-14T11:59:45.861Z,13.96
2022-12-14T12:02:20.352Z,14.38
2022-12-14T12:04:55.510Z,14.79
2022-12-14T12:07:30.576Z,15.15
2022-12-14T12:10:06.666Z,15.48
2022-12-14T12:12:33.300Z,15.80
2022-12-14T12:15:00.151Z,16.04
2022-12-14T12:17:42.261Z,16.19
2022-12-14T12:20:20.722Z,16.36
2022-12-14T12:22:51.766Z,16.49
2022-12-14T12:25:27.533Z,16.46
2022-12-14T12:28:03.219Z,16.26
2022-12-14T12:30:34.099Z,15.98
2022-12-14T12:33:13.674Z,15.55
2022-12-14T12:35:49.019Z,15.14
2022-12-14T12:38:27.174Z,14.51
2022-12-14T12:41:22.408Z,13.81
2022-12-14T12:43:58.287Z,13.20
2022-12-14T12:46:31.314Z,12.68
2022-12-14T12:49:01.659Z,12.33
2022-12-14T12:51:49.060Z,12.07
2022-12-14T12:54:24.486Z,11.94
2022-12-14T12:56:55.748Z,11.86
2022-12-14T12:59:37.337Z,11.70
2022-12-14T13:02:19.494Z,11.47
2022-12-14T13:04:52.703Z,11.21
2022-12-14T13:10:23.529Z,10.45
2022-12-14T13:13:13.840Z,10.26
2022-12-14T13:15:46.922Z,9.94
2022-12-14T13:18:57.622Z,9.72
2022-12-14T13:21:42.323Z,9.39
2022-12-14T13:24:17.881Z,9.06
2022-12-14T13:27:04.458Z,8.71
2022-12-14T13:29:35.022Z,8.44
2022-12-14T13:32:04.289Z,8.23
2022-12-14T13:35:02.620Z,7.99
2022-12-14T13:37:57.648Z,7.86
2022-12-14T13:40:45.846Z,7.75
2022-12-14T13:43:29.830Z,7.65
2022-12-14T13:45:56.385Z,7.58
2022-12-14T13:48:53.197Z,7.46
2022-12-14T13:51:28.455Z,7.40
2022-12-14T13:54:03.633Z,7.35
2022-12-14T13:56:34.253Z,7.30
2022-12-14T13:59:05.478Z,7.31
2022-12-14T14:01:55.232Z,7.34
2022-12-14T14:04:25.013Z,7.47
2022-12-14T14:07:16.459Z,7.55
2022-12-14T14:09:58.775Z,7.64
2022-12-14T14:12:38.725Z,7.72
2022-12-14T14:15:26.095Z,7.80
2022-12-14T14:17:55.051Z,7.93
2022-12-14T14:20:39.415Z,8.01
2022-12-14T14:23:18.010Z,8.06
2022-12-14T14:25:53.568Z,8.06
2022-12-14T14:28:28.349Z,8.00
2022-12-14T14:30:59.526Z,7.80
2022-12-14T14:33:48.406Z,7.56
2022-12-14T14:36:35.951Z,7.16
2022-12-14T14:39:31.437Z,6.87
2022-12-14T14:41:55.554Z,6.65
2022-12-14T14:44:28.289Z,6.48
2022-12-14T14:46:56.904Z,6.38
2022-12-14T14:49:31.761Z,6.24
2022-12-14T14:52:37.659Z,6.04
2022-12-14T14:58:24.970Z,5.52
2022-12-14T15:01:06.604Z,5.21
2022-12-14T15:03:45.355Z,4.96
2022-12-14T15:06:18.399Z,4.73
2022-12-14T15:08:47.687Z,4.54
2022-12-14T15:11:21.355Z,4.34
2022-12-14T15:14:23.277Z,4.16
2022-12-14T15:16:49.702Z,3.95
2022-12-14T15:19:36.330Z,3.75
2022-12-14T15:22:15.570Z,3.61
2022-12-14T15:24:44.595Z,3.47
2022-12-14T15:27:28.055Z,3.29
2022-12-14T15:30:20.573Z,3.15
2022-12-14T15:32:55.027Z,3.03
2022-12-14T15:35:26.820Z,2.91
2022-12-14T15:38:21.400Z,2.77
2022-12-14T15:41:21.221Z,2.67
2022-12-14T15:43:49.357Z,2.59
2022-12-14T15:46:24.656Z,2.49
2022-12-14T15:49:12.589Z,2.39
2022-12-14T15:51:43.508Z,2.30
2022-12-14T15:54:19.680Z,2.20
2022-12-14T15:56:53.320Z,2.11
2022-12-14T15:59:34.616Z,2.00
2022-12-14T16:02:30.639Z,1.89
2022-12-14T16:05:02.873Z,1.86
2022-12-14T16:07:39.571Z,1.82
2022-12-14T16:10:29.037Z,1.74
2022-12-14T16:13:01.205Z,1.72
2022-12-14T16:15:29.519Z,1.69
2022-12-14T16:18:01.963Z,1.66
2022-12-14T16:20:37.656Z,1.63
2022-12-14T16:23:39.169Z,1.58
2022-12-14T16:26:15.964Z,1.55
2022-12-14T16:28:45.811Z,1.52
2022-12-14T16:31:20.249Z,1.44
2022-12-14T16:34:09.622Z,1.37
2022-12-14T16:36:36.891Z,1.32
2022-12-14T16:39:16.459Z,1.24
2022-12-14T16:41:57.055Z,1.18
2022-12-14T16:44:39.983Z,1.13
2022-12-14T16:47:12.483Z,1.12
2022-12-14T16:49:55.653Z,1.07
2022-12-14T16:52:26.330Z,1.09
2022-12-14T16:55:17.108Z,1.03
2022-12-14T16:57:49.459Z,1.03
2022-12-14T17:00:33.281Z,1.00
2022-12-14T17:03:03.075Z,0.99
2022-12-14T17:05:41.700Z,0.94
2022-12-14T17:08:08.636Z,0.94
2022-12-14T17:10:35.374Z,0.92
2022-12-14T17:13:03.289Z,0.90
2022-12-14T17:15:34.258Z,0.87
2022-12-14T17:18:03.861Z,0.87
2022-12-14T17:20:39.217Z,0.82
2022-12-14T17:23:08.655Z,0.80
2022-12-14T17:25:37.329Z,0.75
2022-12-14T17:28:29.767Z,0.72
2022-12-14T17:30:59.041Z,0.66
2022-12-14T17:33:49.530Z,0.57
2022-12-14T17:36:15.909Z,0.55
2022-12-14T17:38:48.396Z,0.49
2022-12-14T17:41:26.757Z,0.47
2022-12-14T17:43:57.482Z,0.44
2022-12-14T17:46:26.823Z,0.41
2022-12-14T17:48:53.495Z,0.36
2022-12-14T17:51:29.935Z,0.29
2022-12-14T17:53:58.173Z,0.28
2022-12-14T17:56:24.874Z,0.27
2022-12-14T17:58:51.260Z,0.24
2022-12-14T18:01:21.789Z,0.23
2022-12-14T18:03:51.914Z,0.19
2022-12-14T18:06:18.720Z,0.18
2022-12-14T18:08:46.561Z,0.14
2022-12-14T18:11:16.353Z,0.08
2022-12-14T18:13:42.909Z,0.05
2022-12-14T18:16:20.000Z,0.00
2022-12-14T18:18:46.862Z,-0.03
2022-12-14T18:21:24.830Z,-0.07
2022-12-14T18:23:52.323Z,-0.10
2022-12-14T18:26:20.933Z,-0.14
2022-12-14T18:28:55.248Z,-0.19
2022-12-14T18:31:28.966Z,-0.22
2022-12-14T18:34:12.902Z,-0.27
2022-12-14T18:36:39.714Z,-0.26
2022-12-14T18:39:19.802Z,-0.33
2022-12-14T18:41:46.167Z,-0.34
2022-12-14T18:44:12.552Z,-0.38
2022-12-14T18:46:39.478Z,-0.44
2022-12-14T18:49:05.972Z,-0.51
2022-12-14T18:51:38.543Z,-0.57
2022-12-14T18:54:05.233Z,-0.61
2022-12-14T18:56:31.734Z,-0.66
2022-12-14T18:59:05.387Z,-0.73
2022-12-14T19:01:31.821Z,-0.75
2022-12-14T19:03:58.349Z,-0.80
2022-12-14T19:11:57.812Z,-0.92
2022-12-14T19:14:24.205Z,-0.98
2022-12-14T19:16:50.523Z,-1.00
2022-12-14T19:19:19.913Z,-1.02
2022-12-14T19:21:49.238Z,-1.03
2022-12-14T19:24:15.829Z,-1.05
2022-12-14T19:26:42.309Z,-1.06
2022-12-14T19:29:08.625Z,-1.08
2022-12-14T19:31:35.028Z,-1.08
2022-12-14T19:34:01.449Z,-1.09
2022-12-14T19:36:27.752Z,-1.11
2022-12-14T19:38:54.125Z,-1.11
2022-12-14T19:41:21.318Z,-1.11
2022-12-14T19:43:48.415Z,-1.11
2022-12-14T19:46:18.185Z,-1.13
2022-12-14T19:48:44.726Z,-1.16
2022-12-14T19:51:12.686Z,-1.20
2022-12-14T19:53:40.708Z,-1.21
2022-12-14T19:56:07.285Z,-1.23
2022-12-14T19:58:33.710Z,-1.26
2022-12-14T20:01:00.196Z,-1.27
2022-12-14T20:03:27.231Z,-1.28
2022-12-14T20:05:58.421Z,-1.29
2022-12-14T20:08:25.930Z,-1.31
2022-12-14T20:10:53.006Z,-1.32
2022-12-14T20:13:20.640Z,-1.34
2022-12-14T20:15:55.266Z,-1.37
2022-12-14T20:18:22.503Z,-1.39
2022-12-14T20:20:50.177Z,-1.37
2022-12-14T20:23:18.367Z,-1.38
2022-12-14T20:25:44.872Z,-1.38
2022-12-14T20:28:11.659Z,-1.38
2022-12-14T20:30:46.876Z,-1.41
2022-12-14T20:33:13.477Z,-1.43
2022-12-14T20:35:39.832Z,-1.46
2022-12-14T20:38:06.198Z,-1.49
2022-12-14T20:40:38.058Z,-1.52
2022-12-14T20:43:05.031Z,-1.55
2022-12-14T20:45:31.334Z,-1.55
2022-12-14T20:47:57.716Z,-1.57
2022-12-14T20:50:24.156Z,-1.58
2022-12-14T20:52:50.509Z,-1.59
2022-12-14T20:55:16.963Z,-1.60
2022-12-14T20:57:43.274Z,-1.65
2022-12-14T21:00:10.235Z,-1.69
2022-12-14T21:02:36.612Z,-1.74
2022-12-14T21:05:03.409Z,-1.80
2022-12-14T21:07:32.517Z,-1.88
2022-12-14T21:09:58.882Z,-1.93
2022-12-14T21:12:25.693Z,-2.00
2022-12-14T21:14:54.573Z,-2.07
2022-12-14T21:17:23.146Z,-2.13
2022-12-14T21:19:50.029Z,-2.19
2022-12-14T21:22:19.089Z,-2.26
2022-12-14T21:25:02.958Z,-2.29
2022-12-14T21:27:31.602Z,-2.32
2022-12-14T21:29:59.916Z,-2.34
2022-12-14T21:32:26.406Z,-2.39
2022-12-14T21:34:52.784Z,-2.40
2022-12-14T21:37:20.207Z,-2.43
2022-12-14T21:39:52.375Z,-2.45
2022-12-14T21:42:21.849Z,-2.44
2022-12-14T21:44:50.116Z,-2.42
2022-12-14T21:47:19.459Z,-2.42
2022-12-14T21:49:46.192Z,-2.40
2022-12-14T21:52:15.355Z,-2.38
2022-12-14T21:54:42.248Z,-2.34
2022-12-14T21:57:52.039Z,-2.32
2022-12-14T22:00:20.093Z,-2.25
2022-12-14T22:02:46.563Z,-2.22
2022-12-14T22:05:13.168Z,-2.20
2022-12-14T22:07:39.651Z,-2.18
2022-12-14T22:10:06.624Z,-2.15
2022-12-14T22:12:33.027Z,-2.14
2022-12-14T22:14:59.347Z,-2.14
2022-12-14T22:17:25.715Z,-2.12
2022-12-14T22:19:54.178Z,-2.12
2022-12-14T22:22:20.511Z,-2.11
2022-12-14T22:24:50.971Z,-2.12
2022-12-14T22:27:17.572Z,-2.11
2022-12-14T22:29:43.881Z,-2.11
2022-12-14T22:32:14.466Z,-2.09
2022-12-14T22:34:40.878Z,-2.08
2022-12-14T22:37:07.354Z,-2.07
2022-12-14T22:39:33.822Z,-2.08
2022-12-14T22:42:00.177Z,-2.05
2022-12-14T22:44:26.609Z,-2.03
2022-12-14T22:46:52.940Z,-2.03
2022-12-14T22:49:20.051Z,-2.01
2022-12-14T22:51:47.219Z,-2.01
2022-12-14T22:54:24.895Z,-2.04
2022-12-14T22:57:02.326Z,-2.06
2022-12-14T22:59:38.702Z,-2.10
2022-12-14T23:02:05.525Z,-2.10
2022-12-14T23:04:32.049Z,-2.13
2022-12-14T23:06:58.649Z,-2.15
2022-12-14T23:09:43.777Z,-2.19
2022-12-14T23:12:28.505Z,-2.24
2022-12-14T23:15:13.328Z,-2.26
2022-12-14T23:17:58.053Z,-2.26
2022-12-14T23:20:42.821Z,-2.28
2022-12-14T23:23:28.364Z,-2.25
2022-12-14T23:26:13.730Z,-2.24
2022-12-14T23:28:59.104Z,-2.24
2022-12-14T23:31:43.984Z,-2.25
2022-12-14T23:34:28.741Z,-2.23
2022-12-14T23:37:19.819Z,-2.20
2022-12-14T23:40:05.844Z,-2.17
2022-12-14T23:42:50.658Z,-2.15
2022-12-14T23:45:35.234Z,-2.12
2022-12-14T23:48:20.026Z,-2.08
2022-12-14T23:51:04.615Z,-2.06
2022-12-14T23:53:49.908Z,-2.03
2022-12-14T23:56:35.757Z,-1.98
2022-12-14T23:59:22.736Z,-1.93
